Time;durP1;ratioP1;P1;durP2;ratioP2;P2;SDS_P1;SDS_P2;PMS_P1;PMS_P2;Temp;Humidity;BMP_temperature;BMP_pressure;BME280_temperature;BME280_humidity;BME280_pressure;Samples;Min_cycle;Max_cycle;Signal;HPM_P1;HPM_P2
2023/07/06 00:02:23;;;;;;;5.38;3.63;;;12.30;64.50;;;;;;5069729;28;20400;-73
2023/07/06 00:04:49;;;;;;;12.90;4.07;;;12.30;64.70;;;;;;5069526;28;20940;-72
2023/07/06 00:07:20;;;;;;;8.88;4.10;;;12.30;64.90;;;;;;5068702;28;20438;-73
2023/07/06 00:09:48;;;;;;;8.90;4.10;;;12.30;65.30;;;;;;5069483;28;20404;-73
2023/07/06 00:12:14;;;;;;;9.82;4.03;;;12.30;65.80;;;;;;5070356;28;20917;-73
2023/07/06 00:14:40;;;;;;;7.95;3.95;;;12.30;66.20;;;;;;5069607;28;20477;-73
2023/07/06 00:17:10;;;;;;;10.15;4.03;;;12.40;66.80;;;;;;5068108;28;20777;-73
2023/07/06 00:19:37;;;;;;;9.07;3.92;;;12.40;67.50;;;;;;5069564;28;20917;-72
2023/07/06 00:22:03;;;;;;;7.55;3.60;;;12.40;67.70;;;;;;5067448;28;20520;-73
2023/07/06 00:24:28;;;;;;;7.63;3.55;;;12.40;68.10;;;;;;5052646;28;20499;-73
2023/07/06 00:26:54;;;;;;;9.80;4.07;;;12.50;68.60;;;;;;5068581;28;20482;-73
2023/07/06 00:29:19;;;;;;;6.47;3.72;;;12.50;68.80;;;;;;5069390;28;20400;-73
2023/07/06 00:31:53;;;;;;;7.67;4.20;;;12.60;69.10;;;;;;5057933;28;20973;-73
2023/07/06 00:34:19;;;;;;;8.05;4.00;;;12.60;68.80;;;;;;5068223;28;20485;-73
2023/07/06 00:36:48;;;;;;;10.73;4.60;;;12.60;68.10;;;;;;5068853;28;20448;-73
2023/07/06 00:39:14;;;;;;;8.35;3.92;;;12.60;68.80;;;;;;5069574;28;20477;-72
2023/07/06 00:41:40;;;;;;;7.85;4.10;;;12.60;69.20;;;;;;5058346;28;20404;-73
2023/07/06 00:44:44;;;;;;;8.23;3.72;;;12.60;69.50;;;;;;5068884;28;20408;-73
2023/07/06 00:47:11;;;;;;;9.70;4.10;;;12.70;69.40;;;;;;5061833;28;20809;-73
2023/07/06 00:49:37;;;;;;;9.57;4.43;;;12.60;69.20;;;;;;5067090;28;20482;-73
2023/07/06 00:52:03;;;;;;;8.63;4.10;;;12.60;68.80;;;;;;5058513;28;20559;-73
2023/07/06 00:54:29;;;;;;;8.48;4.15;;;12.60;68.70;;;;;;5070207;28;20463;-73
2023/07/06 00:56:55;;;;;;;7.32;4.00;;;12.60;68.60;;;;;;5067469;28;20458;-73
2023/07/06 00:59:26;;;;;;;8.35;4.07;;;12.50;68.40;;;;;;5065405;28;21009;-73
2023/07/06 01:01:52;;;;;;;7.90;4.15;;;12.50;68.60;;;;;;5067314;28;20954;-73
2023/07/06 01:04:20;;;;;;;7.93;4.00;;;12.40;68.80;;;;;;5068840;28;20404;-73
2023/07/06 01:06:51;;;;;;;7.93;4.13;;;12.40;68.90;;;;;;5064640;28;20499;-73
2023/07/06 01:09:18;;;;;;;9.07;4.70;;;12.40;69.10;;;;;;5068826;28;20412;-73
2023/07/06 01:11:44;;;;;;;7.82;4.10;;;12.30;69.20;;;;;;5066616;28;20408;-73
2023/07/06 01:14:12;;;;;;;9.48;4.55;;;12.30;69.50;;;;;;5069684;28;20426;-73
2023/07/06 01:17:05;;;;;;;7.03;4.40;;;12.30;69.70;;;;;;5069365;28;20403;-73
2023/07/06 01:19:40;;;;;;;7.45;4.65;;;12.30;70.00;;;;;;5061178;28;20927;-72
2023/07/06 01:22:42;;;;;;;12.77;4.85;;;12.30;70.60;;;;;;5037995;28;20419;-73
2023/07/06 01:25:20;;;;;;;8.80;4.45;;;12.20;70.10;;;;;;5068086;28;21266;-73
2023/07/06 01:28:03;;;;;;;10.63;5.07;;;12.20;70.70;;;;;;5068251;28;20423;-73
2023/07/06 01:30:57;;;;;;;11.05;5.03;;;12.20;70.00;;;;;;5053054;28;21154;-73
2023/07/06 01:33:48;;;;;;;9.77;4.90;;;12.10;70.30;;;;;;5059217;28;20996;-73
2023/07/06 01:36:38;;;;;;;9.63;4.80;;;12.10;70.40;;;;;;5044108;28;20996;-73
2023/07/06 01:39:18;;;;;;;10.27;5.32;;;12.00;70.70;;;;;;5062894;28;20496;-73
2023/07/06 01:41:45;;;;;;;10.03;5.33;;;12.10;70.90;;;;;;5065685;28;20487;-73
2023/07/06 01:44:14;;;;;;;12.60;5.43;;;12.00;71.10;;;;;;5050542;28;20447;-72
2023/07/06 01:46:48;;;;;;;11.50;5.90;;;12.00;71.10;;;;;;5051947;28;20800;-72
2023/07/06 01:49:14;;;;;;;10.77;5.55;;;12.00;71.20;;;;;;5058297;28;20424;-73
2023/07/06 01:52:24;;;;;;;11.60;5.93;;;12.00;71.40;;;;;;5059055;28;20409;-73
2023/07/06 01:55:11;;;;;;;11.53;5.77;;;11.90;71.70;;;;;;5051362;28;20467;-73
2023/07/06 01:57:50;;;;;;;11.98;5.80;;;11.90;71.90;;;;;;5068256;28;20422;-73
2023/07/06 02:00:18;;;;;;;11.80;5.97;;;11.90;72.20;;;;;;5061694;28;20443;-73
2023/07/06 02:02:47;;;;;;;10.57;6.05;;;11.90;72.50;;;;;;5050370;28;20422;-73
2023/07/06 02:05:13;;;;;;;8.27;5.90;;;11.90;72.80;;;;;;5071083;28;20410;-73
2023/07/06 02:07:41;;;;;;;12.80;6.40;;;11.90;72.80;;;;;;5070362;28;20942;-73
2023/07/06 02:10:07;;;;;;;12.18;6.40;;;11.90;72.90;;;;;;5071388;28;20764;-73
2023/07/06 02:12:32;;;;;;;12.32;6.75;;;11.90;73.00;;;;;;5053686;28;20406;-73
2023/07/06 02:14:58;;;;;;;12.60;7.00;;;11.90;73.20;;;;;;5070505;28;20437;-73
2023/07/06 02:17:24;;;;;;;12.40;7.05;;;11.90;73.60;;;;;;5071185;28;20402;-73
2023/07/06 02:19:50;;;;;;;12.50;6.93;;;11.90;73.80;;;;;;5070096;28;21044;-73
2023/07/06 02:22:17;;;;;;;14.90;7.50;;;11.90;74.20;;;;;;5070647;28;20406;-73
2023/07/06 02:24:43;;;;;;;14.43;7.53;;;12.00;74.50;;;;;;5069674;28;21000;-73
2023/07/06 02:27:10;;;;;;;13.38;8.18;;;12.00;74.80;;;;;;5069311;28;20418;-72
2023/07/06 02:29:36;;;;;;;13.68;7.15;;;12.00;75.20;;;;;;5069264;28;20425;-73
2023/07/06 02:32:02;;;;;;;13.02;7.32;;;12.10;75.30;;;;;;5070594;28;20409;-73
2023/07/06 02:34:28;;;;;;;12.40;7.88;;;12.10;75.40;;;;;;5088045;28;20444;-73
2023/07/06 02:36:55;;;;;;;15.38;7.75;;;12.10;75.40;;;;;;5087358;28;20406;-73
2023/07/06 02:39:24;;;;;;;14.47;8.37;;;12.10;75.50;;;;;;5075248;28;20422;-73
2023/07/06 02:41:53;;;;;;;15.35;8.63;;;12.10;75.50;;;;;;5070584;28;20414;-73
2023/07/06 02:44:20;;;;;;;15.00;8.68;;;12.10;76.00;;;;;;5087784;28;20512;-73
2023/07/06 02:46:46;;;;;;;13.75;8.30;;;12.20;76.20;;;;;;5070339;28;20493;-73
2023/07/06 02:49:12;;;;;;;16.10;8.73;;;12.20;76.90;;;;;;5069336;28;20406;-73
2023/07/06 02:51:38;;;;;;;18.40;8.85;;;12.30;77.30;;;;;;5058856;28;20461;-73
2023/07/06 02:54:04;;;;;;;15.33;9.23;;;12.30;77.50;;;;;;5050599;28;20409;-73
2023/07/06 02:56:30;;;;;;;14.73;8.85;;;12.30;77.90;;;;;;5069318;28;21030;-73
2023/07/06 02:58:56;;;;;;;16.30;9.23;;;12.40;78.20;;;;;;5069923;28;20461;-73
2023/07/06 03:01:21;;;;;;;18.57;9.33;;;12.40;78.30;;;;;;5069771;28;20933;-73
2023/07/06 03:03:47;;;;;;;14.85;8.70;;;12.40;78.40;;;;;;5069993;28;20406;-73
2023/07/06 03:06:13;;;;;;;17.50;9.57;;;12.50;78.50;;;;;;5069427;28;20409;-73
2023/07/06 03:08:39;;;;;;;17.43;9.50;;;12.50;78.70;;;;;;5069670;28;20907;-73
2023/07/06 03:11:04;;;;;;;19.33;9.17;;;12.60;79.00;;;;;;5060214;28;20465;-73
2023/07/06 03:13:31;;;;;;;16.03;9.07;;;12.60;79.10;;;;;;5053757;28;20436;-73
2023/07/06 03:15:58;;;;;;;15.65;9.20;;;12.60;79.20;;;;;;5069862;28;20444;-73
2023/07/06 03:18:25;;;;;;;15.17;9.50;;;12.60;79.10;;;;;;5069326;28;20416;-73
2023/07/06 03:20:50;;;;;;;16.23;9.23;;;12.70;79.30;;;;;;5065630;28;20394;-73
2023/07/06 03:23:18;;;;;;;15.90;9.20;;;12.70;79.40;;;;;;5069790;28;20485;-73
2023/07/06 03:25:44;;;;;;;15.10;9.35;;;12.70;79.50;;;;;;5067835;28;20401;-73
2023/07/06 03:28:10;;;;;;;17.73;9.18;;;12.70;79.50;;;;;;5067567;28;20495;-73
2023/07/06 03:30:35;;;;;;;14.57;9.55;;;12.80;79.90;;;;;;5068917;28;20497;-73
2023/07/06 03:33:01;;;;;;;15.10;9.37;;;12.80;79.90;;;;;;5068976;28;20471;-73
2023/07/06 03:35:28;;;;;;;13.93;8.95;;;12.80;79.90;;;;;;5068979;28;20465;-73
2023/07/06 03:37:58;;;;;;;15.35;9.35;;;12.80;79.70;;;;;;5084940;28;20405;-73
2023/07/06 03:40:27;;;;;;;14.80;8.98;;;12.80;79.70;;;;;;5069346;28;20488;-72
2023/07/06 03:42:55;;;;;;;12.75;8.98;;;12.80;79.50;;;;;;5052796;28;20410;-73
2023/07/06 03:45:22;;;;;;;15.55;8.50;;;12.80;79.60;;;;;;5069542;28;20402;-73
2023/07/06 03:47:50;;;;;;;14.93;8.57;;;12.70;79.30;;;;;;5069659;28;20799;-73
2023/07/06 03:50:20;;;;;;;15.02;8.68;;;12.70;79.40;;;;;;5069269;28;20398;-73
2023/07/06 03:52:46;;;;;;;14.07;8.90;;;12.70;79.40;;;;;;5055336;28;20416;-73
2023/07/06 03:55:22;;;;;;;15.23;8.43;;;12.70;79.30;;;;;;5069549;28;20504;-73
2023/07/06 03:57:49;;;;;;;14.73;8.00;;;12.70;79.50;;;;;;5056970;28;20421;-73
2023/07/06 04:00:22;;;;;;;13.68;8.23;;;12.60;79.50;;;;;;5052475;28;20477;-73
2023/07/06 04:02:49;;;;;;;14.40;8.45;;;12.60;79.70;;;;;;5069088;28;20482;-73
2023/07/06 04:05:17;;;;;;;16.85;8.60;;;12.60;79.70;;;;;;5068941;28;20459;-73
2023/07/06 04:07:44;;;;;;;14.82;8.45;;;12.60;79.70;;;;;;5069486;28;20904;-73
2023/07/06 04:10:11;;;;;;;12.88;8.35;;;12.60;79.70;;;;;;5071705;28;20938;-73
2023/07/06 04:12:37;;;;;;;15.87;8.47;;;12.50;79.80;;;;;;5073348;28;20420;-73
2023/07/06 04:15:05;;;;;;;15.63;8.10;;;12.50;80.00;;;;;;5072256;28;21351;-72
2023/07/06 04:17:32;;;;;;;13.10;8.00;;;12.60;80.30;;;;;;5056491;28;20454;-73
2023/07/06 04:19:58;;;;;;;13.30;8.00;;;12.60;80.50;;;;;;5072506;28;20410;-73
2023/07/06 04:22:24;;;;;;;12.23;7.88;;;12.60;80.70;;;;;;5055378;28;20418;-73
2023/07/06 04:24:51;;;;;;;13.20;7.70;;;12.60;80.90;;;;;;5067867;28;20779;-73
2023/07/06 04:27:17;;;;;;;14.52;8.63;;;12.70;81.10;;;;;;5080488;28;20402;-73
2023/07/06 04:29:44;;;;;;;12.00;7.30;;;12.70;81.20;;;;;;5079235;28;20436;-73
2023/07/06 04:32:09;;;;;;;13.80;7.53;;;12.80;81.30;;;;;;5071945;28;20417;-73
2023/07/06 04:34:36;;;;;;;14.90;7.23;;;12.80;81.40;;;;;;5071680;28;20429;-73
2023/07/06 04:37:02;;;;;;;13.95;7.50;;;12.90;81.70;;;;;;5061189;28;20485;-73
2023/07/06 04:39:28;;;;;;;12.93;7.90;;;13.00;81.70;;;;;;5070991;28;20942;-73
2023/07/06 04:41:57;;;;;;;13.75;7.68;;;13.10;81.70;;;;;;5048476;28;20396;-73
2023/07/06 04:44:22;;;;;;;14.18;8.10;;;13.20;81.70;;;;;;5058840;28;20471;-73
2023/07/06 04:46:48;;;;;;;14.73;7.47;;;13.30;81.50;;;;;;5071461;28;20402;-73
2023/07/06 04:49:14;;;;;;;12.40;6.93;;;13.30;81.60;;;;;;5061780;28;20437;-73
2023/07/06 04:51:39;;;;;;;12.43;7.25;;;13.40;81.60;;;;;;5078141;28;20810;-73
2023/07/06 04:54:05;;;;;;;12.95;6.90;;;13.50;81.70;;;;;;5067933;28;21023;-73
2023/07/06 04:56:30;;;;;;;12.27;6.97;;;13.50;81.60;;;;;;5071529;28;20751;-73
2023/07/06 04:58:56;;;;;;;10.20;6.60;;;13.70;81.30;;;;;;5085275;28;20427;-73
2023/07/06 05:01:24;;;;;;;11.03;6.50;;;13.70;80.70;;;;;;5079418;28;20401;-73
2023/07/06 05:03:49;;;;;;;14.52;6.97;;;13.80;80.70;;;;;;5089307;28;20410;-73
2023/07/06 05:06:15;;;;;;;14.13;7.00;;;13.90;80.30;;;;;;5070175;28;20455;-73
2023/07/06 05:08:43;;;;;;;11.52;6.75;;;13.90;79.80;;;;;;5070530;28;20406;-73
2023/07/06 05:11:09;;;;;;;11.33;6.13;;;14.00;79.90;;;;;;5070890;28;20410;-73
2023/07/06 05:13:35;;;;;;;12.15;6.57;;;14.00;78.80;;;;;;5070690;28;20522;-73
2023/07/06 05:16:01;;;;;;;11.55;6.78;;;14.00;78.80;;;;;;5070725;28;20844;-71
2023/07/06 05:18:26;;;;;;;9.57;6.50;;;14.00;78.60;;;;;;5070927;28;20497;-72
2023/07/06 05:20:56;;;;;;;11.50;7.03;;;14.00;78.00;;;;;;5061983;28;20419;-72
2023/07/06 05:23:28;;;;;;;12.02;6.20;;;14.00;77.20;;;;;;5068170;28;20601;-72
2023/07/06 05:25:56;;;;;;;13.30;6.55;;;13.90;77.00;;;;;;5070637;28;20410;-72
2023/07/06 05:28:22;;;;;;;11.40;6.30;;;13.90;77.30;;;;;;5070428;28;20414;-72
2023/07/06 05:30:49;;;;;;;11.95;6.88;;;13.90;77.90;;;;;;5075347;28;20422;-73
2023/07/06 05:33:14;;;;;;;12.82;6.63;;;13.90;78.40;;;;;;5064184;28;20408;-73
2023/07/06 05:35:41;;;;;;;18.08;7.80;;;14.00;78.80;;;;;;5070330;28;20435;-73
2023/07/06 05:38:10;;;;;;;12.27;6.80;;;14.10;79.20;;;;;;5052341;28;20402;-73
2023/07/06 05:40:37;;;;;;;10.25;6.53;;;14.10;79.10;;;;;;5070705;28;20436;-73
2023/07/06 05:43:03;;;;;;;14.40;7.07;;;14.20;79.20;;;;;;5069656;28;20426;-73
2023/07/06 05:45:29;;;;;;;15.10;7.32;;;14.20;79.10;;;;;;5070513;28;20965;-73
2023/07/06 05:47:55;;;;;;;15.27;7.32;;;14.30;78.70;;;;;;5070057;28;20437;-73
2023/07/06 05:50:20;;;;;;;13.57;6.93;;;14.30;78.70;;;;;;5088127;28;20402;-73
2023/07/06 05:52:46;;;;;;;13.90;7.78;;;14.40;78.60;;;;;;5057221;28;20390;-73
2023/07/06 05:55:12;;;;;;;15.30;7.60;;;14.40;78.60;;;;;;5088989;28;20430;-73
2023/07/06 05:57:38;;;;;;;15.10;7.72;;;14.50;78.50;;;;;;5070503;28;20809;-73
2023/07/06 06:00:09;;;;;;;14.93;7.07;;;14.50;78.20;;;;;;5089336;28;20428;-73
2023/07/06 06:02:36;;;;;;;13.85;7.00;;;14.60;77.90;;;;;;5069968;28;20413;-73
2023/07/06 06:05:02;;;;;;;16.25;7.88;;;14.60;77.60;;;;;;5058734;28;20444;-73
2023/07/06 06:07:31;;;;;;;12.55;7.45;;;14.70;77.80;;;;;;5054223;28;20406;-73
2023/07/06 06:09:57;;;;;;;12.68;7.35;;;14.70;77.90;;;;;;5070343;28;21314;-73
2023/07/06 06:12:23;;;;;;;14.40;7.97;;;14.70;77.80;;;;;;5070764;28;20406;-73
2023/07/06 06:14:50;;;;;;;11.60;7.30;;;14.80;76.90;;;;;;5070127;28;20430;-73
2023/07/06 06:17:18;;;;;;;13.57;7.97;;;14.80;76.80;;;;;;5058572;28;20896;-73
2023/07/06 06:19:45;;;;;;;13.88;8.30;;;14.90;76.10;;;;;;5070449;28;20402;-73
2023/07/06 06:22:13;;;;;;;11.50;7.18;;;14.90;76.40;;;;;;5070585;28;20410;-73
2023/07/06 06:24:39;;;;;;;13.98;7.47;;;15.00;76.70;;;;;;5069546;28;20441;-73
2023/07/06 06:27:05;;;;;;;14.53;7.83;;;15.10;77.40;;;;;;5070666;28;20452;-73
2023/07/06 06:29:32;;;;;;;13.55;7.60;;;15.10;77.30;;;;;;5070589;28;20818;-73
2023/07/06 06:31:59;;;;;;;14.35;7.70;;;15.20;77.40;;;;;;5069433;28;21161;-73
2023/07/06 06:34:25;;;;;;;15.95;8.45;;;15.20;76.90;;;;;;5070060;28;20433;-73
2023/07/06 06:36:51;;;;;;;15.13;8.13;;;15.30;77.00;;;;;;5070713;28;20753;-73
2023/07/06 06:39:18;;;;;;;16.15;8.00;;;15.30;76.90;;;;;;5057475;28;20415;-73
2023/07/06 06:41:44;;;;;;;15.55;7.97;;;15.40;77.20;;;;;;5070124;28;20408;-73
2023/07/06 06:44:14;;;;;;;15.27;8.10;;;15.40;77.40;;;;;;5069015;28;20401;-73
2023/07/06 06:46:40;;;;;;;19.17;8.40;;;15.50;77.50;;;;;;5059768;28;20441;-73
2023/07/06 06:49:06;;;;;;;15.05;7.95;;;15.60;77.70;;;;;;5070224;28;20503;-73
2023/07/06 06:51:31;;;;;;;16.95;7.95;;;15.60;77.60;;;;;;5060755;28;20506;-73
2023/07/06 06:53:58;;;;;;;14.20;8.23;;;15.80;78.00;;;;;;5052498;28;20887;-74
2023/07/06 06:56:24;;;;;;;16.57;8.07;;;15.80;77.90;;;;;;5061196;28;20533;-74
2023/07/06 06:58:51;;;;;;;18.33;7.72;;;15.90;77.90;;;;;;5066148;28;20432;-74
2023/07/06 07:01:17;;;;;;;15.73;8.05;;;16.00;77.30;;;;;;5069423;28;20413;-73
2023/07/06 07:03:45;;;;;;;16.25;7.90;;;16.00;76.30;;;;;;5070064;28;20407;-74
2023/07/06 07:06:13;;;;;;;15.20;7.72;;;16.10;76.00;;;;;;5070335;28;20406;-74
2023/07/06 07:08:43;;;;;;;16.38;8.15;;;16.20;75.80;;;;;;5069458;28;20409;-74
2023/07/06 07:11:10;;;;;;;14.30;7.45;;;16.20;75.40;;;;;;5069904;28;20982;-74
2023/07/06 07:13:37;;;;;;;11.73;6.93;;;16.30;75.30;;;;;;5057312;28;20410;-74
2023/07/06 07:16:05;;;;;;;14.90;7.47;;;16.40;75.40;;;;;;5069816;28;20425;-74
2023/07/06 07:18:31;;;;;;;15.20;7.80;;;16.40;74.30;;;;;;5069937;28;20406;-73
2023/07/06 07:20:57;;;;;;;17.63;7.50;;;16.40;73.70;;;;;;5069592;28;20907;-73
2023/07/06 07:23:24;;;;;;;15.45;7.97;;;16.50;74.30;;;;;;5069578;28;20417;-74
2023/07/06 07:25:50;;;;;;;14.43;7.57;;;16.60;73.80;;;;;;5070258;28;21122;-74
2023/07/06 07:28:17;;;;;;;16.05;7.10;;;16.60;73.90;;;;;;5087420;28;20750;-74
2023/07/06 07:30:58;;;;;;;14.55;6.88;;;16.70;73.40;;;;;;5069956;28;20760;-74
2023/07/06 07:33:27;;;;;;;15.35;6.85;;;16.70;72.00;;;;;;5067935;28;20963;-74
2023/07/06 07:35:52;;;;;;;14.82;6.20;;;16.80;71.20;;;;;;5069155;28;20448;-74
2023/07/06 07:38:19;;;;;;;14.73;6.30;;;16.90;72.50;;;;;;5069373;28;20409;-74
2023/07/06 07:40:59;;;;;;;14.57;6.72;;;17.00;72.50;;;;;;5069611;28;20485;-73
2023/07/06 07:43:27;;;;;;;15.40;6.20;;;17.10;71.50;;;;;;5071148;28;20906;-74
2023/07/06 07:45:55;;;;;;;12.93;5.57;;;17.10;69.70;;;;;;5072974;28;20418;-74
2023/07/06 07:48:25;;;;;;;16.20;5.00;;;17.20;69.00;;;;;;5044354;28;20403;-74
2023/07/06 07:50:58;;;;;;;10.70;4.45;;;17.30;67.80;;;;;;5067689;28;20427;-74
2023/07/06 07:53:25;;;;;;;10.77;4.30;;;17.30;64.80;;;;;;5064464;28;20928;-74
2023/07/06 07:55:53;;;;;;;11.15;4.22;;;17.40;62.70;;;;;;5090890;28;20429;-74
2023/07/06 07:58:19;;;;;;;10.18;4.32;;;17.50;61.30;;;;;;5073220;28;20448;-74
2023/07/06 08:00:52;;;;;;;11.00;4.17;;;17.60;61.20;;;;;;5072828;28;20811;-74
2023/07/06 08:03:18;;;;;;;11.07;4.00;;;17.70;58.40;;;;;;5073262;28;20410;-74
2023/07/06 08:05:44;;;;;;;10.70;3.40;;;17.80;58.10;;;;;;5091068;28;20408;-74
2023/07/06 08:08:11;;;;;;;10.15;3.08;;;17.90;56.90;;;;;;5073700;28;20392;-73
2023/07/06 08:10:40;;;;;;;8.65;2.80;;;18.00;54.50;;;;;;5072077;28;20406;-74
2023/07/06 08:13:09;;;;;;;5.45;2.25;;;18.00;46.80;;;;;;5090591;28;20900;-74
2023/07/06 08:15:38;;;;;;;6.78;2.10;;;18.10;40.60;;;;;;5060136;28;20430;-74
2023/07/06 08:18:06;;;;;;;8.23;2.50;;;18.20;41.50;;;;;;5072628;28;20413;-74
2023/07/06 08:20:32;;;;;;;6.95;2.55;;;18.30;41.00;;;;;;5056990;28;20431;-74
2023/07/06 08:23:01;;;;;;;6.28;2.10;;;18.40;33.90;;;;;;5067515;28;20434;-74
2023/07/06 08:25:28;;;;;;;7.25;2.22;;;18.50;31.50;;;;;;5061069;28;20767;-74
2023/07/06 08:27:57;;;;;;;5.82;1.58;;;18.60;29.70;;;;;;5072451;28;20412;-74
2023/07/06 08:30:22;;;;;;;6.28;1.60;;;18.60;30.10;;;;;;5072812;28;20410;-74
2023/07/06 08:32:51;;;;;;;6.50;1.45;;;18.70;29.50;;;;;;5055327;28;20433;-74
2023/07/06 08:35:17;;;;;;;3.50;1.10;;;18.90;23.40;;;;;;5071991;28;20513;-74
2023/07/06 08:37:46;;;;;;;3.65;1.00;;;18.90;18.90;;;;;;5072448;28;20428;-73
2023/07/06 08:40:14;;;;;;;4.50;1.20;;;18.90;7.00;;;;;;5072784;28;20916;-74
2023/07/06 08:42:43;;;;;;;5.22;1.58;;;18.90;5.80;;;;;;5070557;28;20805;-74
2023/07/06 08:45:16;;;;;;;5.50;1.10;;;18.80;4.10;;;;;;5063232;28;20418;-74
2023/07/06 08:47:44;;;;;;;4.85;1.30;;;18.80;4.00;;;;;;5090123;28;20477;-74
2023/07/06 08:50:10;;;;;;;3.80;1.20;;;19.00;7.30;;;;;;5072798;28;20763;-74
2023/07/06 08:52:37;;;;;;;5.03;1.40;;;19.10;5.00;;;;;;5068136;28;20909;-74
2023/07/06 08:55:15;;;;;;;3.95;1.17;;;19.10;1.00;;;;;;5067779;28;20435;-74
2023/07/06 08:57:41;;;;;;;4.13;1.20;;;19.00;1.00;;;;;;5067970;28;20419;-74
2023/07/06 09:00:22;;;;;;;3.77;1.03;;;18.90;1.00;;;;;;5068654;28;20407;-74
2023/07/06 09:03:00;;;;;;;5.30;1.00;;;18.90;1.00;;;;;;5040964;28;20670;-74
2023/07/06 09:05:31;;;;;;;5.38;1.20;;;18.80;1.00;;;;;;5064683;28;20798;-74
2023/07/06 09:07:58;;;;;;;4.87;1.40;;;18.80;1.00;;;;;;5050544;28;20423;-74
2023/07/06 09:10:28;;;;;;;3.78;1.00;;;18.90;1.00;;;;;;5067318;28;20897;-74
2023/07/06 09:13:12;;;;;;;3.67;1.00;;;19.00;1.00;;;;;;5068311;28;20408;-74
2023/07/06 09:15:38;;;;;;;3.38;1.30;;;19.00;1.00;;;;;;5061726;28;20465;-73
2023/07/06 09:18:04;;;;;;;4.23;1.33;;;18.90;1.00;;;;;;5062459;28;20440;-74
2023/07/06 09:20:32;;;;;;;6.03;1.43;;;18.90;1.00;;;;;;5069351;28;20400;-74
2023/07/06 09:22:58;;;;;;;4.50;1.20;;;18.80;1.00;;;;;;5067638;28;20455;-74
2023/07/06 09:25:35;;;;;;;4.80;1.25;;;18.80;1.00;;;;;;5056977;28;20439;-74
2023/07/06 09:28:07;;;;;;;4.32;1.20;;;18.80;1.00;;;;;;5067967;28;20420;-73
2023/07/06 09:30:36;;;;;;;3.53;1.00;;;19.00;1.00;;;;;;5066460;28;20432;-74
2023/07/06 09:33:25;;;;;;;4.40;1.00;;;19.20;1.00;;;;;;5068070;28;20431;-73
2023/07/06 09:35:56;;;;;;;4.65;0.93;;;19.30;1.00;;;;;;5067864;28;20464;-74
2023/07/06 09:38:24;;;;;;;3.30;0.90;;;19.30;1.00;;;;;;5063168;28;20899;-74
2023/07/06 09:40:50;;;;;;;4.20;0.90;;;19.20;1.00;;;;;;5060594;28;20448;-74
2023/07/06 09:43:23;;;;;;;5.03;0.80;;;19.10;1.00;;;;;;5061637;28;20417;-74
2023/07/06 09:45:51;;;;;;;3.95;1.30;;;19.00;1.00;;;;;;5046733;28;20404;-74
2023/07/06 09:48:37;;;;;;;3.20;1.05;;;19.00;1.00;;;;;;5060563;28;20989;-74
2023/07/06 09:51:21;;;;;;;5.05;1.15;;;19.00;1.00;;;;;;5064614;28;20954;-74
2023/07/06 09:53:56;;;;;;;4.97;1.20;;;18.90;1.00;;;;;;5067170;28;20477;-74
2023/07/06 09:56:22;;;;;;;5.95;1.15;;;18.90;1.00;;;;;;5067839;28;20423;-73
2023/07/06 09:58:50;;;;;;;5.13;0.95;;;19.00;1.00;;;;;;5067156;28;20404;-74
2023/07/06 10:01:28;;;;;;;3.40;0.80;;;19.30;1.00;;;;;;5069088;28;20404;-74
2023/07/06 10:04:08;;;;;;;2.63;0.88;;;19.80;1.00;;;;;;5067194;28;20430;-74
2023/07/06 10:07:12;;;;;;;3.92;1.02;;;20.20;1.00;;;;;;5055102;28;20436;-74
2023/07/06 10:09:44;;;;;;;4.57;1.00;;;20.30;1.00;;;;;;5055968;28;20760;-74
2023/07/06 10:12:30;;;;;;;4.32;1.17;;;20.30;1.00;;;;;;5065884;28;20404;-74
2023/07/06 10:14:56;;;;;;;4.55;0.90;;;20.30;1.00;;;;;;5066753;28;20462;-74
2023/07/06 10:17:37;;;;;;;3.38;1.00;;;20.20;1.00;;;;;;5061368;28;20748;-74
2023/07/06 10:20:43;;;;;;;4.25;0.90;;;20.10;1.00;;;;;;5052513;28;20412;-74
2023/07/06 10:23:41;;;;;;;3.65;0.90;;;20.40;1.00;;;;;;4967224;28;20432;-74
2023/07/06 10:26:28;;;;;;;4.28;1.20;;;20.90;1.00;;;;;;5026744;28;20539;-75
2023/07/06 10:29:02;;;;;;;4.68;0.95;;;21.60;1.00;;;;;;5057626;28;20408;-75
2023/07/06 10:31:33;;;;;;;4.55;0.90;;;22.10;1.00;;;;;;5067708;28;20909;-74
2023/07/06 10:34:23;;;;;;;3.03;0.80;;;22.40;1.00;;;;;;5066872;28;20537;-75
2023/07/06 10:36:49;;;;;;;3.67;1.00;;;22.60;1.00;;;;;;5066807;28;20545;-75
2023/07/06 10:39:24;;;;;;;3.23;0.80;;;22.60;1.00;;;;;;5065982;28;20411;-74
2023/07/06 10:42:02;;;;;;;4.53;1.00;;;22.30;1.00;;;;;;5068242;28;20491;-74
2023/07/06 10:44:46;;;;;;;2.97;1.00;;;22.00;1.00;;;;;;5066503;28;20415;-74
2023/07/06 10:47:35;;;;;;;3.05;0.80;;;21.60;1.00;;;;;;5067476;28;20414;-74
2023/07/06 10:50:07;;;;;;;4.97;1.20;;;21.20;1.00;;;;;;5048955;28;20427;-74
2023/07/06 10:52:38;;;;;;;4.78;1.10;;;21.00;1.00;;;;;;5051651;28;20420;-74
2023/07/06 10:55:23;;;;;;;4.50;1.10;;;20.80;1.00;;;;;;5066646;28;20420;-74
2023/07/06 10:57:51;;;;;;;3.97;1.02;;;20.70;1.00;;;;;;5066559;28;20427;-74
2023/07/06 11:00:20;;;;;;;3.50;0.93;;;20.70;1.00;;;;;;5065503;28;20903;-74
2023/07/06 11:02:46;;;;;;;3.97;1.00;;;20.70;1.00;;;;;;5054965;28;20829;-74
2023/07/06 11:05:32;;;;;;;2.92;1.10;;;20.80;1.00;;;;;;5066003;28;20407;-74
2023/07/06 11:08:05;;;;;;;4.53;1.48;;;21.10;1.00;;;;;;5066499;28;20467;-74
2023/07/06 11:10:39;;;;;;;3.85;1.48;;;21.30;1.00;;;;;;5066899;28;20905;-74
2023/07/06 11:13:04;;;;;;;3.08;0.93;;;21.60;1.00;;;;;;5066409;28;20411;-74
2023/07/06 11:15:48;;;;;;;2.63;1.00;;;22.00;1.00;;;;;;5065941;28;20523;-74
2023/07/06 11:18:40;;;;;;;3.58;1.20;;;22.10;1.00;;;;;;5065096;28;20751;-74
2023/07/06 11:21:45;;;;;;;5.40;1.05;;;22.00;1.00;;;;;;5066708;28;20924;-74
2023/07/06 11:24:16;;;;;;;3.47;1.20;;;21.90;1.00;;;;;;5057158;28;20932;-74
2023/07/06 11:26:50;;;;;;;4.22;1.10;;;22.20;1.00;;;;;;5065782;28;20909;-75
2023/07/06 11:29:20;;;;;;;3.33;0.90;;;22.80;1.00;;;;;;5066612;28;20499;-75
2023/07/06 11:32:10;;;;;;;4.13;0.80;;;23.20;99.90;;;;;;5049185;28;20411;-75
2023/07/06 11:35:09;;;;;;;2.00;0.70;;;23.30;99.90;;;;;;5064884;28;20516;-74
2023/07/06 11:37:54;;;;;;;2.88;0.60;;;23.30;99.90;;;;;;5066984;28;20411;-75
2023/07/06 11:40:46;;;;;;;3.28;0.80;;;23.40;99.90;;;;;;5049706;28;20416;-75
2023/07/06 11:43:36;;;;;;;4.47;1.10;;;23.60;99.90;;;;;;5066364;28;20412;-75
2023/07/06 11:46:34;;;;;;;7.60;1.15;;;23.90;99.90;;;;;;5049161;28;20435;-75
2023/07/06 11:49:20;;;;;;;4.37;1.10;;;24.20;99.90;;;;;;5066373;28;20492;-74
2023/07/06 11:51:48;;;;;;;3.78;0.98;;;24.50;99.90;;;;;;5055047;28;20417;-75
2023/07/06 11:54:43;;;;;;;2.67;0.60;;;24.40;99.90;;;;;;5047372;28;20462;-75
2023/07/06 11:57:25;;;;;;;6.03;0.63;;;24.30;99.90;;;;;;5061740;28;20782;-74
2023/07/06 12:00:48;;;;;;;2.38;0.60;;;23.90;99.90;;;;;;5067468;28;20404;-75
2023/07/06 12:03:09;;;;;;;3.15;0.55;;;23.70;1.00;;;;;;5064207;28;20419;-74
2023/07/06 12:05:38;;;;;;;2.28;0.60;;;23.50;99.90;;;;;;5065193;28;20414;-74
2023/07/06 12:08:19;;;;;;;1.70;0.60;;;23.20;98.90;;;;;;5067249;28;20415;-74
2023/07/06 12:10:48;;;;;;;3.05;0.50;;;22.90;99.90;;;;;;5059873;28;20416;-74
2023/07/06 12:13:25;;;;;;;2.08;0.55;;;22.70;99.90;;;;;;5065203;28;20783;-74
2023/07/06 12:15:56;;;;;;;4.95;0.90;;;22.50;99.90;;;;;;5066200;28;20416;-74
2023/07/06 12:18:23;;;;;;;4.43;1.13;;;22.30;99.90;;;;;;5048005;28;20419;-74
2023/07/06 12:20:53;;;;;;;3.95;1.02;;;22.10;99.90;;;;;;5065144;28;20447;-74
2023/07/06 12:23:19;;;;;;;3.60;0.80;;;22.10;99.90;;;;;;5064498;28;20404;-74
2023/07/06 12:25:45;;;;;;;1.98;0.70;;;21.90;99.90;;;;;;5064839;28;20408;-74
2023/07/06 12:28:15;;;;;;;2.78;0.80;;;21.90;99.90;;;;;;5066034;28;20412;-74
2023/07/06 12:30:43;;;;;;;3.05;0.70;;;21.80;99.90;;;;;;5067603;28;20453;-74
2023/07/06 12:33:13;;;;;;;1.60;0.80;;;21.80;99.90;;;;;;5069395;28;20875;-74
2023/07/06 12:35:40;;;;;;;2.53;0.80;;;21.80;99.90;;;;;;5047911;28;20433;-74
2023/07/06 12:38:11;;;;;;;3.20;0.60;;;21.90;99.90;;;;;;5068857;28;20796;-74
2023/07/06 12:40:38;;;;;;;5.00;0.90;;;21.90;99.90;;;;;;5059898;28;20464;-74
2023/07/06 12:43:04;;;;;;;1.92;0.75;;;22.10;99.90;;;;;;5068351;28;20403;-74
2023/07/06 12:45:31;;;;;;;3.25;0.70;;;22.40;99.90;;;;;;5058482;28;20417;-74
2023/07/06 12:48:03;;;;;;;4.32;0.80;;;22.70;99.90;;;;;;5069537;28;20404;-75
2023/07/06 12:50:39;;;;;;;2.93;0.90;;;23.20;99.90;;;;;;5063015;28;21094;-75
2023/07/06 12:53:22;;;;;;;3.27;0.60;;;23.60;99.90;;;;;;5057711;28;20499;-75
2023/07/06 12:55:49;;;;;;;2.33;0.60;;;24.00;99.90;;;;;;5069119;28;20431;-74
2023/07/06 12:58:27;;;;;;;2.28;0.60;;;24.30;1.00;;;;;;5069162;28;20785;-74
2023/07/06 13:01:25;;;;;;;3.73;0.50;;;24.60;99.90;;;;;;5056352;28;20412;-75
2023/07/06 13:03:56;;;;;;;3.05;0.60;;;25.10;99.90;;;;;;5052310;28;20819;-75